sensor_id;sensor_type;location;lat;lon;timestamp;P1;durP1;ratioP1;P2;durP2;ratioP2
8411;SDS011;4243;49.296;11.348;2023-02-01T00:01:06;110.03;;;2.70;;
8411;SDS011;4243;49.296;11.348;2023-02-01T00:03:35;108.90;;;2.80;;
8411;SDS011;4243;49.296;11.348;2023-02-01T00:06:03;109.87;;;2.70;;
8411;SDS011;4243;49.296;11.348;2023-02-01T00:08:30;109.47;;;2.70;;
8411;SDS011;4243;49.296;11.348;2023-02-01T00:11:02;108.97;;;2.70;;
8411;SDS011;4243;49.296;11.348;2023-02-01T00:13:34;108.60;;;2.70;;
8411;SDS011;4243;49.296;11.348;2023-02-01T00:16:08;109.37;;;2.70;;
8411;SDS011;4243;49.296;11.348;2023-02-01T00:18:46;109.17;;;2.70;;
8411;SDS011;4243;49.296;11.348;2023-02-01T00:21:18;109.80;;;2.70;;
8411;SDS011;4243;49.296;11.348;2023-02-01T00:23:47;108.60;;;2.80;;
8411;SDS011;4243;49.296;11.348;2023-02-01T00:26:15;109.27;;;2.70;;
8411;SDS011;4243;49.296;11.348;2023-02-01T00:28:57;110.10;;;2.80;;
8411;SDS011;4243;49.296;11.348;2023-02-01T00:31:25;109.47;;;2.80;;
8411;SDS011;4243;49.296;11.348;2023-02-01T00:33:54;109.47;;;2.80;;
8411;SDS011;4243;49.296;11.348;2023-02-01T00:36:21;109.10;;;2.73;;
8411;SDS011;4243;49.296;11.348;2023-02-01T00:38:49;108.90;;;2.77;;
8411;SDS011;4243;49.296;11.348;2023-02-01T00:41:17;109.67;;;2.73;;
8411;SDS011;4243;49.296;11.348;2023-02-01T00:43:47;109.27;;;2.70;;
8411;SDS011;4243;49.296;11.348;2023-02-01T00:46:17;109.80;;;2.70;;
8411;SDS011;4243;49.296;11.348;2023-02-01T00:48:46;109.37;;;2.73;;
8411;SDS011;4243;49.296;11.348;2023-02-01T00:51:15;110.20;;;2.80;;
8411;SDS011;4243;49.296;11.348;2023-02-01T00:53:50;110.10;;;2.80;;
8411;SDS011;4243;49.296;11.348;2023-02-01T00:56:17;110.00;;;2.80;;
8411;SDS011;4243;49.296;11.348;2023-02-01T00:58:44;110.00;;;2.70;;
8411;SDS011;4243;49.296;11.348;2023-02-01T01:01:13;109.77;;;2.70;;
8411;SDS011;4243;49.296;11.348;2023-02-01T01:03:47;110.00;;;2.70;;
8411;SDS011;4243;49.296;11.348;2023-02-01T01:06:21;108.73;;;2.80;;
8411;SDS011;4243;49.296;11.348;2023-02-01T01:08:56;109.87;;;2.73;;
8411;SDS011;4243;49.296;11.348;2023-02-01T01:11:28;110.13;;;2.80;;
8411;SDS011;4243;49.296;11.348;2023-02-01T01:13:58;109.70;;;2.77;;
8411;SDS011;4243;49.296;11.348;2023-02-01T01:16:27;109.80;;;2.70;;
8411;SDS011;4243;49.296;11.348;2023-02-01T01:18:58;110.00;;;2.70;;
8411;SDS011;4243;49.296;11.348;2023-02-01T01:21:27;109.77;;;2.73;;
8411;SDS011;4243;49.296;11.348;2023-02-01T01:23:55;109.67;;;2.70;;
8411;SDS011;4243;49.296;11.348;2023-02-01T01:26:24;110.10;;;2.77;;
8411;SDS011;4243;49.296;11.348;2023-02-01T01:28:55;109.77;;;2.70;;
8411;SDS011;4243;49.296;11.348;2023-02-01T01:31:24;109.93;;;2.70;;
8411;SDS011;4243;49.296;11.348;2023-02-01T01:33:54;109.97;;;2.67;;
8411;SDS011;4243;49.296;11.348;2023-02-01T01:36:25;109.47;;;2.70;;
8411;SDS011;4243;49.296;11.348;2023-02-01T01:38:54;109.73;;;2.63;;
8411;SDS011;4243;49.296;11.348;2023-02-01T01:41:23;108.70;;;2.70;;
8411;SDS011;4243;49.296;11.348;2023-02-01T01:44:03;110.10;;;2.70;;
8411;SDS011;4243;49.296;11.348;2023-02-01T01:49:05;109.20;;;2.67;;
8411;SDS011;4243;49.296;11.348;2023-02-01T01:51:49;108.50;;;2.70;;
8411;SDS011;4243;49.296;11.348;2023-02-01T01:54:25;110.17;;;2.70;;
8411;SDS011;4243;49.296;11.348;2023-02-01T01:57:06;110.27;;;2.63;;
8411;SDS011;4243;49.296;11.348;2023-02-01T01:59:43;110.67;;;2.67;;
8411;SDS011;4243;49.296;11.348;2023-02-01T02:02:19;109.97;;;2.70;;
8411;SDS011;4243;49.296;11.348;2023-02-01T02:04:47;109.30;;;2.70;;
8411;SDS011;4243;49.296;11.348;2023-02-01T02:07:16;109.53;;;2.77;;
8411;SDS011;4243;49.296;11.348;2023-02-01T02:09:53;109.97;;;2.70;;
8411;SDS011;4243;49.296;11.348;2023-02-01T02:12:26;110.20;;;2.70;;
8411;SDS011;4243;49.296;11.348;2023-02-01T02:14:54;109.50;;;2.73;;
8411;SDS011;4243;49.296;11.348;2023-02-01T02:17:25;109.27;;;2.70;;
8411;SDS011;4243;49.296;11.348;2023-02-01T02:20:30;108.30;;;2.73;;
8411;SDS011;4243;49.296;11.348;2023-02-01T02:24:00;110.00;;;2.70;;
8411;SDS011;4243;49.296;11.348;2023-02-01T02:27:00;108.77;;;2.70;;
8411;SDS011;4243;49.296;11.348;2023-02-01T02:36:06;109.97;;;2.70;;
8411;SDS011;4243;49.296;11.348;2023-02-01T02:38:54;110.30;;;2.70;;
8411;SDS011;4243;49.296;11.348;2023-02-01T02:41:54;108.77;;;2.70;;
8411;SDS011;4243;49.296;11.348;2023-02-01T02:45:13;109.87;;;2.70;;
8411;SDS011;4243;49.296;11.348;2023-02-01T02:51:07;109.37;;;2.70;;
8411;SDS011;4243;49.296;11.348;2023-02-01T02:54:09;109.13;;;2.70;;
8411;SDS011;4243;49.296;11.348;2023-02-01T02:57:02;109.90;;;2.70;;
8411;SDS011;4243;49.296;11.348;2023-02-01T02:59:56;109.87;;;2.70;;
8411;SDS011;4243;49.296;11.348;2023-02-01T03:02:46;109.97;;;2.70;;
8411;SDS011;4243;49.296;11.348;2023-02-01T03:05:34;110.10;;;2.70;;
8411;SDS011;4243;49.296;11.348;2023-02-01T03:13:38;109.37;;;2.63;;
8411;SDS011;4243;49.296;11.348;2023-02-01T03:16:21;109.97;;;2.70;;
8411;SDS011;4243;49.296;11.348;2023-02-01T03:19:16;109.03;;;2.67;;
8411;SDS011;4243;49.296;11.348;2023-02-01T03:22:03;110.37;;;2.70;;
8411;SDS011;4243;49.296;11.348;2023-02-01T03:24:41;110.00;;;2.70;;
8411;SDS011;4243;49.296;11.348;2023-02-01T03:27:20;110.37;;;2.73;;
8411;SDS011;4243;49.296;11.348;2023-02-01T03:30:08;109.70;;;2.70;;
8411;SDS011;4243;49.296;11.348;2023-02-01T03:33:13;109.67;;;2.73;;
8411;SDS011;4243;49.296;11.348;2023-02-01T03:35:55;108.93;;;2.70;;
8411;SDS011;4243;49.296;11.348;2023-02-01T03:38:55;109.07;;;2.73;;
8411;SDS011;4243;49.296;11.348;2023-02-01T03:41:53;109.07;;;2.70;;
8411;SDS011;4243;49.296;11.348;2023-02-01T03:47:35;110.00;;;2.70;;
8411;SDS011;4243;49.296;11.348;2023-02-01T03:50:10;109.87;;;2.70;;
8411;SDS011;4243;49.296;11.348;2023-02-01T03:55:50;109.17;;;2.70;;
8411;SDS011;4243;49.296;11.348;2023-02-01T03:58:21;109.83;;;2.70;;
8411;SDS011;4243;49.296;11.348;2023-02-01T04:00:51;110.17;;;2.63;;
8411;SDS011;4243;49.296;11.348;2023-02-01T04:03:27;109.90;;;2.67;;
8411;SDS011;4243;49.296;11.348;2023-02-01T04:05:55;110.40;;;2.70;;
8411;SDS011;4243;49.296;11.348;2023-02-01T04:08:26;109.87;;;2.63;;
8411;SDS011;4243;49.296;11.348;2023-02-01T04:10:53;109.77;;;2.70;;
8411;SDS011;4243;49.296;11.348;2023-02-01T04:13:20;110.40;;;2.70;;
8411;SDS011;4243;49.296;11.348;2023-02-01T04:15:47;110.30;;;2.70;;
8411;SDS011;4243;49.296;11.348;2023-02-01T04:18:15;110.23;;;2.70;;
8411;SDS011;4243;49.296;11.348;2023-02-01T04:20:43;109.57;;;2.70;;
8411;SDS011;4243;49.296;11.348;2023-02-01T04:23:11;110.40;;;2.70;;
8411;SDS011;4243;49.296;11.348;2023-02-01T04:25:42;109.57;;;2.70;;
8411;SDS011;4243;49.296;11.348;2023-02-01T04:28:09;109.87;;;2.70;;
8411;SDS011;4243;49.296;11.348;2023-02-01T04:30:37;108.83;;;2.70;;
8411;SDS011;4243;49.296;11.348;2023-02-01T04:33:04;109.87;;;2.70;;
8411;SDS011;4243;49.296;11.348;2023-02-01T04:35:31;110.07;;;2.70;;
8411;SDS011;4243;49.296;11.348;2023-02-01T04:37:58;110.10;;;2.70;;
8411;SDS011;4243;49.296;11.348;2023-02-01T04:40:26;109.97;;;2.70;;
8411;SDS011;4243;49.296;11.348;2023-02-01T04:42:53;109.87;;;2.70;;
8411;SDS011;4243;49.296;11.348;2023-02-01T04:45:20;110.70;;;2.70;;
8411;SDS011;4243;49.296;11.348;2023-02-01T04:47:48;110.23;;;2.70;;
8411;SDS011;4243;49.296;11.348;2023-02-01T04:50:15;109.87;;;2.70;;
8411;SDS011;4243;49.296;11.348;2023-02-01T04:52:42;110.37;;;2.70;;
8411;SDS011;4243;49.296;11.348;2023-02-01T04:55:12;110.17;;;2.80;;
8411;SDS011;4243;49.296;11.348;2023-02-01T04:57:39;108.83;;;2.70;;
8411;SDS011;4243;49.296;11.348;2023-02-01T05:00:07;108.60;;;2.67;;
8411;SDS011;4243;49.296;11.348;2023-02-01T05:02:36;110.30;;;2.70;;
8411;SDS011;4243;49.296;11.348;2023-02-01T05:05:03;110.27;;;2.70;;
8411;SDS011;4243;49.296;11.348;2023-02-01T05:07:31;110.17;;;2.73;;
8411;SDS011;4243;49.296;11.348;2023-02-01T05:09:58;109.87;;;2.70;;
8411;SDS011;4243;49.296;11.348;2023-02-01T05:12:25;110.03;;;2.70;;
8411;SDS011;4243;49.296;11.348;2023-02-01T05:15:14;109.77;;;2.70;;
8411;SDS011;4243;49.296;11.348;2023-02-01T05:17:41;109.47;;;2.70;;
8411;SDS011;4243;49.296;11.348;2023-02-01T05:20:08;110.17;;;2.70;;
8411;SDS011;4243;49.296;11.348;2023-02-01T05:22:36;109.37;;;2.70;;
8411;SDS011;4243;49.296;11.348;2023-02-01T05:25:03;110.07;;;2.70;;
8411;SDS011;4243;49.296;11.348;2023-02-01T05:27:33;108.57;;;2.60;;
8411;SDS011;4243;49.296;11.348;2023-02-01T05:30:01;110.10;;;2.70;;
8411;SDS011;4243;49.296;11.348;2023-02-01T05:32:31;110.00;;;2.70;;
8411;SDS011;4243;49.296;11.348;2023-02-01T05:34:58;110.07;;;2.67;;
8411;SDS011;4243;49.296;11.348;2023-02-01T05:37:25;109.30;;;2.70;;
8411;SDS011;4243;49.296;11.348;2023-02-01T05:39:53;110.17;;;2.73;;
8411;SDS011;4243;49.296;11.348;2023-02-01T05:42:20;109.03;;;2.80;;
8411;SDS011;4243;49.296;11.348;2023-02-01T05:44:47;110.30;;;2.70;;
8411;SDS011;4243;49.296;11.348;2023-02-01T05:47:14;110.50;;;2.70;;
8411;SDS011;4243;49.296;11.348;2023-02-01T05:49:41;109.37;;;2.70;;
8411;SDS011;4243;49.296;11.348;2023-02-01T05:52:08;110.10;;;2.70;;
8411;SDS011;4243;49.296;11.348;2023-02-01T05:54:35;109.73;;;2.70;;
8411;SDS011;4243;49.296;11.348;2023-02-01T05:57:02;109.47;;;2.70;;
8411;SDS011;4243;49.296;11.348;2023-02-01T05:59:29;109.77;;;2.70;;
8411;SDS011;4243;49.296;11.348;2023-02-01T06:01:56;109.87;;;2.70;;
8411;SDS011;4243;49.296;11.348;2023-02-01T06:04:23;109.37;;;2.70;;
8411;SDS011;4243;49.296;11.348;2023-02-01T06:06:50;109.57;;;2.70;;
8411;SDS011;4243;49.296;11.348;2023-02-01T06:09:17;110.27;;;2.70;;
8411;SDS011;4243;49.296;11.348;2023-02-01T06:11:44;109.97;;;2.70;;
8411;SDS011;4243;49.296;11.348;2023-02-01T06:14:12;109.87;;;2.70;;
8411;SDS011;4243;49.296;11.348;2023-02-01T06:16:45;109.67;;;2.67;;
8411;SDS011;4243;49.296;11.348;2023-02-01T06:19:13;109.97;;;2.70;;
8411;SDS011;4243;49.296;11.348;2023-02-01T06:21:43;110.40;;;2.67;;
8411;SDS011;4243;49.296;11.348;2023-02-01T06:24:10;109.90;;;2.70;;
8411;SDS011;4243;49.296;11.348;2023-02-01T06:26:38;109.00;;;2.73;;
8411;SDS011;4243;49.296;11.348;2023-02-01T06:29:09;109.17;;;2.70;;
8411;SDS011;4243;49.296;11.348;2023-02-01T06:31:36;109.67;;;2.80;;
8411;SDS011;4243;49.296;11.348;2023-02-01T06:34:04;109.00;;;2.73;;
8411;SDS011;4243;49.296;11.348;2023-02-01T06:36:31;108.70;;;2.70;;
8411;SDS011;4243;49.296;11.348;2023-02-01T06:38:58;109.67;;;2.80;;
8411;SDS011;4243;49.296;11.348;2023-02-01T06:41:26;109.47;;;2.73;;
8411;SDS011;4243;49.296;11.348;2023-02-01T06:43:55;109.00;;;2.70;;
8411;SDS011;4243;49.296;11.348;2023-02-01T06:46:22;108.97;;;2.77;;
8411;SDS011;4243;49.296;11.348;2023-02-01T06:48:49;109.47;;;2.70;;
8411;SDS011;4243;49.296;11.348;2023-02-01T06:51:26;109.60;;;2.70;;
8411;SDS011;4243;49.296;11.348;2023-02-01T06:53:55;109.67;;;2.70;;
8411;SDS011;4243;49.296;11.348;2023-02-01T06:56:23;109.90;;;2.70;;
8411;SDS011;4243;49.296;11.348;2023-02-01T06:58:51;109.63;;;2.70;;
8411;SDS011;4243;49.296;11.348;2023-02-01T07:01:18;109.87;;;2.70;;
8411;SDS011;4243;49.296;11.348;2023-02-01T07:03:46;109.90;;;2.70;;
8411;SDS011;4243;49.296;11.348;2023-02-01T07:06:17;109.47;;;2.70;;
8411;SDS011;4243;49.296;11.348;2023-02-01T07:08:45;109.80;;;2.63;;
8411;SDS011;4243;49.296;11.348;2023-02-01T07:11:12;108.60;;;2.70;;
8411;SDS011;4243;49.296;11.348;2023-02-01T07:13:42;110.07;;;2.60;;
8411;SDS011;4243;49.296;11.348;2023-02-01T07:16:11;109.80;;;2.70;;
8411;SDS011;4243;49.296;11.348;2023-02-01T07:18:43;109.67;;;2.63;;
8411;SDS011;4243;49.296;11.348;2023-02-01T07:21:11;109.10;;;2.70;;
8411;SDS011;4243;49.296;11.348;2023-02-01T07:23:38;108.70;;;2.70;;
8411;SDS011;4243;49.296;11.348;2023-02-01T07:26:06;110.07;;;2.67;;
8411;SDS011;4243;49.296;11.348;2023-02-01T07:28:38;109.77;;;2.70;;
8411;SDS011;4243;49.296;11.348;2023-02-01T07:31:11;110.17;;;2.67;;
8411;SDS011;4243;49.296;11.348;2023-02-01T07:33:44;109.90;;;2.70;;
8411;SDS011;4243;49.296;11.348;2023-02-01T07:36:13;110.17;;;2.70;;
8411;SDS011;4243;49.296;11.348;2023-02-01T07:38:42;109.77;;;2.70;;
8411;SDS011;4243;49.296;11.348;2023-02-01T07:41:10;109.80;;;2.70;;
8411;SDS011;4243;49.296;11.348;2023-02-01T07:43:38;108.87;;;2.67;;
8411;SDS011;4243;49.296;11.348;2023-02-01T07:46:06;110.27;;;2.70;;
8411;SDS011;4243;49.296;11.348;2023-02-01T07:48:35;109.00;;;2.67;;
8411;SDS011;4243;49.296;11.348;2023-02-01T07:53:40;109.57;;;2.70;;
8411;SDS011;4243;49.296;11.348;2023-02-01T07:56:26;109.73;;;2.77;;
8411;SDS011;4243;49.296;11.348;2023-02-01T07:58:54;110.10;;;2.70;;
8411;SDS011;4243;49.296;11.348;2023-02-01T08:01:23;110.20;;;2.70;;
8411;SDS011;4243;49.296;11.348;2023-02-01T08:03:57;109.50;;;2.70;;
8411;SDS011;4243;49.296;11.348;2023-02-01T08:06:29;109.73;;;2.70;;
8411;SDS011;4243;49.296;11.348;2023-02-01T08:09:00;109.97;;;2.67;;
8411;SDS011;4243;49.296;11.348;2023-02-01T08:11:29;109.00;;;2.70;;
8411;SDS011;4243;49.296;11.348;2023-02-01T08:13:57;109.73;;;2.70;;
8411;SDS011;4243;49.296;11.348;2023-02-01T08:16:25;109.97;;;2.70;;
8411;SDS011;4243;49.296;11.348;2023-02-01T08:18:53;109.83;;;2.70;;
8411;SDS011;4243;49.296;11.348;2023-02-01T08:21:27;110.20;;;2.70;;
8411;SDS011;4243;49.296;11.348;2023-02-01T08:24:08;110.27;;;2.70;;
8411;SDS011;4243;49.296;11.348;2023-02-01T08:26:36;110.10;;;2.70;;
8411;SDS011;4243;49.296;11.348;2023-02-01T08:29:04;110.20;;;2.70;;
8411;SDS011;4243;49.296;11.348;2023-02-01T08:31:33;110.37;;;2.70;;
8411;SDS011;4243;49.296;11.348;2023-02-01T08:34:02;109.10;;;2.70;;
8411;SDS011;4243;49.296;11.348;2023-02-01T08:36:34;109.80;;;2.70;;
8411;SDS011;4243;49.296;11.348;2023-02-01T08:39:01;110.53;;;2.70;;
8411;SDS011;4243;49.296;11.348;2023-02-01T08:41:31;110.50;;;2.60;;
8411;SDS011;4243;49.296;11.348;2023-02-01T08:43:58;110.27;;;2.67;;
8411;SDS011;4243;49.296;11.348;2023-02-01T08:46:25;109.70;;;2.63;;
8411;SDS011;4243;49.296;11.348;2023-02-01T08:48:53;110.80;;;2.60;;
8411;SDS011;4243;49.296;11.348;2023-02-01T08:51:21;109.50;;;2.63;;
8411;SDS011;4243;49.296;11.348;2023-02-01T08:53:49;110.17;;;2.60;;
8411;SDS011;4243;49.296;11.348;2023-02-01T08:56:18;110.17;;;2.60;;
8411;SDS011;4243;49.296;11.348;2023-02-01T08:58:45;109.90;;;2.60;;
8411;SDS011;4243;49.296;11.348;2023-02-01T09:03:41;110.70;;;2.70;;
8411;SDS011;4243;49.296;11.348;2023-02-01T09:06:10;110.57;;;2.70;;
8411;SDS011;4243;49.296;11.348;2023-02-01T09:08:41;109.77;;;2.63;;
8411;SDS011;4243;49.296;11.348;2023-02-01T09:11:15;109.90;;;2.63;;
8411;SDS011;4243;49.296;11.348;2023-02-01T09:13:46;109.50;;;2.67;;
8411;SDS011;4243;49.296;11.348;2023-02-01T09:16:14;109.53;;;2.60;;
8411;SDS011;4243;49.296;11.348;2023-02-01T09:18:41;110.37;;;2.63;;
8411;SDS011;4243;49.296;11.348;2023-02-01T09:21:27;109.87;;;2.60;;
8411;SDS011;4243;49.296;11.348;2023-02-01T09:23:55;110.50;;;2.60;;
8411;SDS011;4243;49.296;11.348;2023-02-01T09:26:22;110.27;;;2.60;;
8411;SDS011;4243;49.296;11.348;2023-02-01T09:28:57;110.73;;;2.70;;
8411;SDS011;4243;49.296;11.348;2023-02-01T09:31:26;109.07;;;2.60;;
8411;SDS011;4243;49.296;11.348;2023-02-01T09:33:53;110.23;;;2.70;;
8411;SDS011;4243;49.296;11.348;2023-02-01T09:36:21;109.13;;;2.63;;
8411;SDS011;4243;49.296;11.348;2023-02-01T09:38:49;110.07;;;2.70;;
8411;SDS011;4243;49.296;11.348;2023-02-01T09:41:34;110.07;;;2.60;;
8411;SDS011;4243;49.296;11.348;2023-02-01T09:44:32;110.13;;;2.60;;
8411;SDS011;4243;49.296;11.348;2023-02-01T09:47:13;110.17;;;2.67;;
8411;SDS011;4243;49.296;11.348;2023-02-01T09:49:56;111.03;;;2.67;;
8411;SDS011;4243;49.296;11.348;2023-02-01T09:52:43;110.50;;;2.60;;
8411;SDS011;4243;49.296;11.348;2023-02-01T09:55:32;110.70;;;2.67;;
8411;SDS011;4243;49.296;11.348;2023-02-01T09:58:29;110.27;;;2.60;;
8411;SDS011;4243;49.296;11.348;2023-02-01T10:01:19;109.77;;;2.60;;
8411;SDS011;4243;49.296;11.348;2023-02-01T10:03:50;110.37;;;2.60;;
8411;SDS011;4243;49.296;11.348;2023-02-01T10:09:50;110.20;;;2.70;;
8411;SDS011;4243;49.296;11.348;2023-02-01T10:15:30;109.63;;;2.63;;
8411;SDS011;4243;49.296;11.348;2023-02-01T10:18:22;109.90;;;2.70;;
8411;SDS011;4243;49.296;11.348;2023-02-01T10:21:26;109.87;;;2.63;;
8411;SDS011;4243;49.296;11.348;2023-02-01T10:25:33;110.10;;;2.67;;
8411;SDS011;4243;49.296;11.348;2023-02-01T10:28:21;110.37;;;2.63;;
8411;SDS011;4243;49.296;11.348;2023-02-01T10:30:52;110.60;;;2.60;;
8411;SDS011;4243;49.296;11.348;2023-02-01T10:33:26;110.87;;;2.70;;
8411;SDS011;4243;49.296;11.348;2023-02-01T10:38:57;111.27;;;2.70;;
8411;SDS011;4243;49.296;11.348;2023-02-01T10:41:33;111.13;;;2.67;;
8411;SDS011;4243;49.296;11.348;2023-02-01T10:44:04;110.77;;;2.63;;
8411;SDS011;4243;49.296;11.348;2023-02-01T10:46:42;111.20;;;2.63;;
8411;SDS011;4243;49.296;11.348;2023-02-01T10:49:16;110.53;;;2.63;;
8411;SDS011;4243;49.296;11.348;2023-02-01T10:54:47;111.27;;;2.60;;
8411;SDS011;4243;49.296;11.348;2023-02-01T10:57:25;110.70;;;2.60;;
8411;SDS011;4243;49.296;11.348;2023-02-01T10:59:55;110.90;;;2.60;;
8411;SDS011;4243;49.296;11.348;2023-02-01T11:02:26;110.17;;;2.60;;
8411;SDS011;4243;49.296;11.348;2023-02-01T11:05:03;109.57;;;2.60;;
8411;SDS011;4243;49.296;11.348;2023-02-01T11:07:36;111.20;;;2.63;;
8411;SDS011;4243;49.296;11.348;2023-02-01T11:10:06;110.47;;;2.60;;
8411;SDS011;4243;49.296;11.348;2023-02-01T11:13:02;110.80;;;2.70;;
8411;SDS011;4243;49.296;11.348;2023-02-01T11:15:31;111.00;;;2.57;;
8411;SDS011;4243;49.296;11.348;2023-02-01T11:18:07;112.07;;;2.60;;
8411;SDS011;4243;49.296;11.348;2023-02-01T11:20:51;112.00;;;2.60;;
8411;SDS011;4243;49.296;11.348;2023-02-01T11:23:24;112.40;;;2.60;;
8411;SDS011;4243;49.296;11.348;2023-02-01T11:25:56;112.07;;;2.67;;
8411;SDS011;4243;49.296;11.348;2023-02-01T11:28:31;113.77;;;2.70;;
8411;SDS011;4243;49.296;11.348;2023-02-01T11:31:02;114.07;;;2.80;;
8411;SDS011;4243;49.296;11.348;2023-02-01T11:33:38;114.13;;;2.80;;
8411;SDS011;4243;49.296;11.348;2023-02-01T11:36:21;113.47;;;2.70;;
8411;SDS011;4243;49.296;11.348;2023-02-01T11:39:06;113.47;;;2.60;;
8411;SDS011;4243;49.296;11.348;2023-02-01T11:41:43;114.10;;;2.70;;
8411;SDS011;4243;49.296;11.348;2023-02-01T11:44:38;113.47;;;2.67;;
8411;SDS011;4243;49.296;11.348;2023-02-01T11:47:18;113.27;;;2.63;;
8411;SDS011;4243;49.296;11.348;2023-02-01T11:49:59;112.77;;;2.70;;
8411;SDS011;4243;49.296;11.348;2023-02-01T11:58:30;111.67;;;2.60;;
8411;SDS011;4243;49.296;11.348;2023-02-01T12:01:56;109.87;;;2.70;;
8411;SDS011;4243;49.296;11.348;2023-02-01T12:04:52;112.47;;;2.67;;
8411;SDS011;4243;49.296;11.348;2023-02-01T12:07:51;111.80;;;2.70;;
8411;SDS011;4243;49.296;11.348;2023-02-01T12:10:24;113.00;;;2.63;;
8411;SDS011;4243;49.296;11.348;2023-02-01T12:19:33;113.27;;;2.70;;
8411;SDS011;4243;49.296;11.348;2023-02-01T12:22:34;113.43;;;2.70;;
8411;SDS011;4243;49.296;11.348;2023-02-01T12:25:52;111.47;;;2.67;;
8411;SDS011;4243;49.296;11.348;2023-02-01T12:28:25;110.63;;;2.70;;
8411;SDS011;4243;49.296;11.348;2023-02-01T12:32:02;112.60;;;2.67;;
8411;SDS011;4243;49.296;11.348;2023-02-01T12:37:51;112.47;;;2.70;;
8411;SDS011;4243;49.296;11.348;2023-02-01T12:41:21;112.47;;;2.60;;
8411;SDS011;4243;49.296;11.348;2023-02-01T12:44:24;112.33;;;2.63;;
8411;SDS011;4243;49.296;11.348;2023-02-01T12:47:30;111.53;;;2.70;;
8411;SDS011;4243;49.296;11.348;2023-02-01T12:50:20;111.80;;;2.67;;
8411;SDS011;4243;49.296;11.348;2023-02-01T12:56:03;111.77;;;2.67;;
8411;SDS011;4243;49.296;11.348;2023-02-01T12:58:44;112.00;;;2.70;;
8411;SDS011;4243;49.296;11.348;2023-02-01T13:01:21;111.77;;;2.60;;
8411;SDS011;4243;49.296;11.348;2023-02-01T13:04:03;112.33;;;2.67;;
8411;SDS011;4243;49.296;11.348;2023-02-01T13:09:23;111.90;;;2.70;;
8411;SDS011;4243;49.296;11.348;2023-02-01T13:12:38;111.60;;;2.60;;
8411;SDS011;4243;49.296;11.348;2023-02-01T13:15:28;112.17;;;2.63;;
8411;SDS011;4243;49.296;11.348;2023-02-01T13:18:05;111.00;;;2.60;;
8411;SDS011;4243;49.296;11.348;2023-02-01T13:23:38;111.40;;;2.70;;
8411;SDS011;4243;49.296;11.348;2023-02-01T13:26:11;110.00;;;2.63;;
8411;SDS011;4243;49.296;11.348;2023-02-01T13:28:52;110.67;;;2.67;;
8411;SDS011;4243;49.296;11.348;2023-02-01T13:34:35;111.40;;;2.67;;
8411;SDS011;4243;49.296;11.348;2023-02-01T13:37:27;111.67;;;2.70;;
8411;SDS011;4243;49.296;11.348;2023-02-01T13:43:13;112.20;;;2.60;;
8411;SDS011;4243;49.296;11.348;2023-02-01T13:45:50;111.13;;;2.63;;
8411;SDS011;4243;49.296;11.348;2023-02-01T13:48:27;111.77;;;2.60;;
8411;SDS011;4243;49.296;11.348;2023-02-01T13:51:28;111.27;;;2.63;;
8411;SDS011;4243;49.296;11.348;2023-02-01T13:54:03;111.17;;;2.63;;
8411;SDS011;4243;49.296;11.348;2023-02-01T13:56:41;111.97;;;2.60;;
8411;SDS011;4243;49.296;11.348;2023-02-01T14:05:09;111.27;;;2.60;;
8411;SDS011;4243;49.296;11.348;2023-02-01T14:11:37;111.00;;;2.67;;
8411;SDS011;4243;49.296;11.348;2023-02-01T14:16:43;110.70;;;2.70;;
8411;SDS011;4243;49.296;11.348;2023-02-01T14:19:36;111.90;;;2.60;;
8411;SDS011;4243;49.296;11.348;2023-02-01T14:24:51;111.47;;;2.67;;
8411;SDS011;4243;49.296;11.348;2023-02-01T14:27:28;111.57;;;2.67;;
8411;SDS011;4243;49.296;11.348;2023-02-01T14:30:06;111.73;;;2.70;;
8411;SDS011;4243;49.296;11.348;2023-02-01T14:32:42;111.77;;;2.63;;
8411;SDS011;4243;49.296;11.348;2023-02-01T14:35:17;111.63;;;2.70;;
8411;SDS011;4243;49.296;11.348;2023-02-01T14:37:52;111.10;;;2.63;;
8411;SDS011;4243;49.296;11.348;2023-02-01T14:40:33;112.07;;;2.70;;
8411;SDS011;4243;49.296;11.348;2023-02-01T14:43:01;112.07;;;2.60;;
8411;SDS011;4243;49.296;11.348;2023-02-01T14:55:50;112.17;;;2.67;;
8411;SDS011;4243;49.296;11.348;2023-02-01T14:58:44;111.30;;;2.70;;
8411;SDS011;4243;49.296;11.348;2023-02-01T15:01:31;112.00;;;2.67;;
8411;SDS011;4243;49.296;11.348;2023-02-01T15:04:11;111.37;;;2.67;;
8411;SDS011;4243;49.296;11.348;2023-02-01T15:06:45;110.90;;;2.70;;
8411;SDS011;4243;49.296;11.348;2023-02-01T15:09:24;111.90;;;2.70;;
8411;SDS011;4243;49.296;11.348;2023-02-01T15:14:47;111.77;;;2.67;;
8411;SDS011;4243;49.296;11.348;2023-02-01T15:17:56;111.67;;;2.70;;
8411;SDS011;4243;49.296;11.348;2023-02-01T15:20:32;111.67;;;2.63;;
8411;SDS011;4243;49.296;11.348;2023-02-01T15:23:01;111.87;;;2.70;;
8411;SDS011;4243;49.296;11.348;2023-02-01T15:25:33;112.07;;;2.67;;
8411;SDS011;4243;49.296;11.348;2023-02-01T15:28:04;111.77;;;2.70;;
8411;SDS011;4243;49.296;11.348;2023-02-01T15:30:39;111.03;;;2.70;;
8411;SDS011;4243;49.296;11.348;2023-02-01T15:33:21;111.97;;;2.70;;
8411;SDS011;4243;49.296;11.348;2023-02-01T15:35:50;111.67;;;2.70;;
8411;SDS011;4243;49.296;11.348;2023-02-01T15:46:34;111.77;;;2.63;;
8411;SDS011;4243;49.296;11.348;2023-02-01T15:52:19;111.00;;;2.60;;
8411;SDS011;4243;49.296;11.348;2023-02-01T15:54:59;112.27;;;2.70;;
8411;SDS011;4243;49.296;11.348;2023-02-01T15:57:35;111.57;;;2.67;;
8411;SDS011;4243;49.296;11.348;2023-02-01T16:00:29;111.60;;;2.70;;
8411;SDS011;4243;49.296;11.348;2023-02-01T16:03:27;112.47;;;2.70;;
8411;SDS011;4243;49.296;11.348;2023-02-01T16:06:12;110.97;;;2.67;;
8411;SDS011;4243;49.296;11.348;2023-02-01T16:15:07;111.50;;;2.70;;
8411;SDS011;4243;49.296;11.348;2023-02-01T16:17:34;111.87;;;2.80;;
8411;SDS011;4243;49.296;11.348;2023-02-01T16:20:01;111.50;;;2.70;;
8411;SDS011;4243;49.296;11.348;2023-02-01T16:22:29;112.07;;;2.73;;
8411;SDS011;4243;49.296;11.348;2023-02-01T16:24:56;109.13;;;2.70;;
8411;SDS011;4243;49.296;11.348;2023-02-01T16:27:23;111.60;;;2.73;;
8411;SDS011;4243;49.296;11.348;2023-02-01T16:29:50;111.97;;;2.80;;
8411;SDS011;4243;49.296;11.348;2023-02-01T16:32:21;112.37;;;2.70;;
8411;SDS011;4243;49.296;11.348;2023-02-01T16:34:49;112.37;;;2.70;;
8411;SDS011;4243;49.296;11.348;2023-02-01T16:37:19;111.80;;;2.80;;
8411;SDS011;4243;49.296;11.348;2023-02-01T16:39:50;111.43;;;2.70;;
8411;SDS011;4243;49.296;11.348;2023-02-01T16:42:18;110.90;;;2.73;;
8411;SDS011;4243;49.296;11.348;2023-02-01T16:44:45;112.13;;;2.77;;
8411;SDS011;4243;49.296;11.348;2023-02-01T16:47:14;112.27;;;2.70;;
8411;SDS011;4243;49.296;11.348;2023-02-01T16:49:49;111.87;;;2.70;;
8411;SDS011;4243;49.296;11.348;2023-02-01T16:52:20;111.77;;;2.70;;
8411;SDS011;4243;49.296;11.348;2023-02-01T16:54:51;112.37;;;2.70;;
8411;SDS011;4243;49.296;11.348;2023-02-01T16:57:19;112.03;;;2.70;;
8411;SDS011;4243;49.296;11.348;2023-02-01T16:59:51;112.17;;;2.70;;
8411;SDS011;4243;49.296;11.348;2023-02-01T17:02:19;112.07;;;2.70;;
8411;SDS011;4243;49.296;11.348;2023-02-01T17:04:47;110.80;;;2.70;;
8411;SDS011;4243;49.296;11.348;2023-02-01T17:07:15;112.57;;;2.77;;
8411;SDS011;4243;49.296;11.348;2023-02-01T17:09:45;111.13;;;2.70;;
8411;SDS011;4243;49.296;11.348;2023-02-01T17:14:58;111.97;;;2.70;;
8411;SDS011;4243;49.296;11.348;2023-02-01T17:17:28;111.87;;;2.70;;
8411;SDS011;4243;49.296;11.348;2023-02-01T17:20:05;111.77;;;2.70;;
8411;SDS011;4243;49.296;11.348;2023-02-01T17:22:33;109.07;;;2.70;;